createdAt,value
2019-05-01T00:02:26.560Z,36.10
2019-05-01T00:05:04.037Z,32.23
2019-05-01T00:07:53.240Z,31.13
2019-05-01T00:10:22.993Z,32.67
2019-05-01T00:12:52.756Z,31.03
2019-05-01T00:15:24.539Z,29.10
2019-05-01T00:17:54.272Z,32.53
2019-05-01T00:20:24.040Z,30.67
2019-05-01T00:22:53.852Z,32.23
2019-05-01T00:25:23.668Z,31.40
2019-05-01T00:27:53.481Z,28.63
2019-05-01T00:30:29.996Z,27.80
2019-05-01T00:32:55.351Z,30.07
2019-05-01T00:35:25.064Z,28.00
2019-05-01T00:37:54.815Z,24.20
2019-05-01T00:40:24.484Z,24.43
2019-05-01T00:42:54.238Z,26.77
2019-05-01T00:45:23.976Z,26.57
2019-05-01T00:47:53.681Z,25.47
2019-05-01T00:50:42.440Z,26.37
2019-05-01T00:53:12.407Z,25.73
2019-05-01T00:56:00.881Z,25.17
2019-05-01T00:58:55.650Z,23.67
2019-05-01T01:01:44.254Z,22.93
2019-05-01T01:04:16.321Z,21.10
2019-05-01T01:07:05.585Z,22.03
2019-05-01T01:09:35.400Z,22.73
2019-05-01T01:12:05.083Z,21.77
2019-05-01T01:14:37.620Z,22.20
2019-05-01T01:17:07.436Z,19.97
2019-05-01T01:19:37.249Z,22.60
2019-05-01T01:22:06.960Z,22.67
2019-05-01T01:24:36.917Z,21.60
2019-05-01T01:27:06.624Z,19.57
2019-05-01T01:29:36.411Z,19.73
2019-05-01T01:32:06.166Z,18.77
2019-05-01T01:34:35.917Z,20.80
2019-05-01T01:37:05.840Z,17.50
2019-05-01T01:39:35.538Z,20.00
2019-05-01T01:42:05.263Z,17.90
2019-05-01T01:44:56.878Z,16.27
2019-05-01T01:47:26.665Z,17.77
2019-05-01T01:49:56.513Z,17.20
2019-05-01T01:52:26.618Z,16.00
2019-05-01T01:54:56.362Z,16.77
2019-05-01T01:57:26.082Z,16.97
2019-05-01T01:59:55.745Z,19.80
2019-05-01T02:02:35.536Z,17.23
2019-05-01T02:05:14.111Z,16.57
2019-05-01T02:07:43.886Z,16.57
2019-05-01T02:10:13.793Z,15.80
2019-05-01T02:12:43.560Z,18.80
2019-05-01T02:15:13.425Z,15.47
2019-05-01T02:17:43.121Z,16.90
2019-05-01T02:20:12.796Z,16.77
2019-05-01T02:22:42.619Z,15.97
2019-05-01T02:25:13.628Z,15.73
2019-05-01T02:28:02.359Z,13.27
2019-05-01T02:30:32.163Z,15.00
2019-05-01T02:33:02.033Z,14.63
2019-05-01T02:35:32.235Z,14.77
2019-05-01T02:38:02.709Z,14.43
2019-05-01T02:40:48.644Z,13.53
2019-05-01T02:43:18.651Z,13.80
2019-05-01T02:45:52.542Z,12.27
2019-05-01T02:48:22.565Z,16.50
2019-05-01T02:50:52.511Z,12.70
2019-05-01T02:53:22.321Z,14.80
2019-05-01T02:56:11.209Z,13.97
2019-05-01T02:58:41.310Z,12.93
2019-05-01T03:01:14.199Z,14.90
2019-05-01T03:03:42.703Z,12.67
2019-05-01T03:06:12.488Z,11.80
2019-05-01T03:08:43.285Z,13.57
2019-05-01T03:11:13.131Z,12.23
2019-05-01T03:13:43.087Z,11.80
2019-05-01T03:16:12.859Z,10.50
2019-05-01T03:18:47.395Z,11.83
2019-05-01T03:21:22.277Z,11.37
2019-05-01T03:23:55.968Z,11.23
2019-05-01T03:26:25.839Z,12.67
2019-05-01T03:28:55.995Z,11.60
2019-05-01T03:31:25.850Z,12.30
2019-05-01T03:33:55.641Z,10.90
2019-05-01T03:36:25.601Z,11.90
2019-05-01T03:38:55.484Z,11.57
2019-05-01T03:41:25.408Z,11.07
2019-05-01T03:43:55.241Z,10.43
2019-05-01T03:46:26.421Z,10.07
2019-05-01T03:48:56.132Z,9.93
2019-05-01T03:51:25.775Z,9.70
2019-05-01T03:53:55.450Z,9.87
2019-05-01T03:56:25.466Z,10.23
2019-05-01T03:58:55.179Z,10.10
2019-05-01T04:01:53.045Z,9.83
2019-05-01T04:04:25.584Z,10.23
2019-05-01T04:06:55.541Z,12.90
2019-05-01T04:09:44.743Z,11.80
2019-05-01T04:12:14.480Z,10.40
2019-05-01T04:14:44.148Z,8.90
2019-05-01T04:17:20.174Z,10.90
2019-05-01T04:19:49.898Z,9.63
2019-05-01T04:22:20.810Z,9.47
2019-05-01T04:24:50.532Z,8.80
2019-05-01T04:27:25.821Z,8.47
2019-05-01T04:30:01.579Z,9.10
2019-05-01T04:32:50.037Z,9.80
2019-05-01T04:35:23.942Z,10.07
2019-05-01T04:37:56.051Z,7.90
2019-05-01T04:40:25.795Z,7.60
2019-05-01T04:42:55.489Z,9.27
2019-05-01T04:45:25.230Z,7.67
2019-05-01T04:47:54.990Z,7.67
2019-05-01T04:50:24.778Z,7.93
2019-05-01T04:52:54.545Z,8.77
2019-05-01T04:55:24.195Z,6.50
2019-05-01T04:57:54.069Z,7.63
2019-05-01T05:00:23.991Z,8.90
2019-05-01T05:03:04.820Z,6.60
2019-05-01T05:05:32.872Z,10.23
2019-05-01T05:08:03.016Z,7.20
2019-05-01T05:10:32.773Z,7.67
2019-05-01T05:13:30.569Z,6.00
2019-05-01T05:16:05.944Z,6.60
2019-05-01T05:18:36.710Z,6.80
2019-05-01T05:21:06.461Z,7.27
2019-05-01T05:23:36.324Z,12.53
2019-05-01T05:26:06.120Z,9.00
2019-05-01T05:28:36.029Z,7.10
2019-05-01T05:31:06.073Z,9.90
2019-05-01T05:33:36.825Z,7.97
2019-05-01T05:36:08.209Z,5.93
2019-05-01T05:38:47.819Z,6.97
2019-05-01T05:41:19.195Z,6.50
2019-05-01T05:43:49.665Z,6.13
2019-05-01T05:46:20.164Z,6.13
2019-05-01T05:48:50.406Z,8.93
2019-05-01T05:51:39.344Z,14.37
2019-05-01T05:54:15.277Z,6.73
2019-05-01T05:56:50.976Z,12.30
2019-05-01T05:59:23.996Z,7.43
2019-05-01T06:02:15.377Z,7.13
2019-05-01T06:05:06.857Z,6.60
2019-05-01T06:08:01.596Z,10.57
2019-05-01T06:10:44.244Z,7.60
2019-05-01T06:13:42.272Z,6.70
2019-05-01T06:16:22.266Z,7.53
2019-05-01T06:19:01.839Z,5.83
2019-05-01T06:21:46.777Z,6.43
2019-05-01T06:24:24.924Z,4.83
2019-05-01T06:26:54.712Z,5.03
2019-05-01T06:29:24.469Z,6.23
2019-05-01T06:31:58.804Z,5.77
2019-05-01T06:34:28.637Z,5.30
2019-05-01T06:36:58.401Z,7.57
2019-05-01T06:39:28.201Z,8.43
2019-05-01T06:41:57.936Z,5.37
2019-05-01T06:44:45.404Z,4.53
2019-05-01T06:47:38.307Z,6.83
2019-05-01T06:50:22.773Z,8.63
2019-05-01T06:52:52.963Z,5.40
2019-05-01T06:55:26.927Z,6.60
2019-05-01T06:57:54.150Z,6.60
2019-05-01T07:00:23.883Z,5.90
2019-05-01T07:02:53.621Z,11.17
2019-05-01T07:05:23.388Z,4.90
2019-05-01T07:07:54.817Z,7.43
2019-05-01T07:10:31.771Z,6.83
2019-05-01T07:12:59.943Z,6.27
2019-05-01T07:15:28.467Z,6.93
2019-05-01T07:17:58.352Z,7.93
2019-05-01T07:20:50.963Z,6.27
2019-05-01T07:23:19.150Z,6.40
2019-05-01T07:25:48.860Z,5.47
2019-05-01T07:28:18.714Z,5.70
2019-05-01T07:30:56.093Z,6.53
2019-05-01T07:33:25.968Z,7.77
2019-05-01T07:35:55.853Z,5.13
2019-05-01T07:38:25.623Z,8.70
2019-05-01T07:40:58.784Z,7.87
2019-05-01T07:43:46.006Z,9.10
2019-05-01T07:46:39.937Z,6.40
2019-05-01T07:49:13.115Z,6.97
2019-05-01T07:51:50.428Z,4.40
2019-05-01T07:54:20.178Z,11.50
2019-05-01T07:56:49.945Z,19.60
2019-05-01T07:59:22.786Z,44.30
2019-05-01T08:02:00.640Z,48.33
2019-05-01T08:04:38.281Z,53.97
2019-05-01T08:07:02.873Z,58.67
2019-05-01T08:09:32.595Z,52.20
2019-05-01T08:12:02.402Z,50.90
2019-05-01T08:14:32.237Z,54.67
2019-05-01T08:17:02.225Z,47.90
2019-05-01T08:19:50.824Z,38.37
2019-05-01T08:22:23.199Z,37.77
2019-05-01T08:24:53.744Z,44.40
2019-05-01T08:27:51.001Z,36.13
2019-05-01T08:30:34.969Z,37.47
2019-05-01T08:33:22.555Z,42.43
2019-05-01T08:35:52.450Z,33.07
2019-05-01T08:38:22.326Z,33.00
2019-05-01T08:40:55.556Z,34.70
2019-05-01T08:43:23.616Z,37.07
2019-05-01T08:46:24.932Z,33.93
2019-05-01T08:49:06.802Z,30.70
2019-05-01T08:51:36.043Z,34.20
2019-05-01T08:54:05.932Z,33.40
2019-05-01T08:56:35.830Z,28.93
2019-05-01T08:59:05.593Z,27.53
2019-05-01T09:01:35.477Z,31.87
2019-05-01T09:04:12.794Z,27.37
2019-05-01T09:06:39.349Z,24.93
2019-05-01T09:09:09.980Z,28.60
2019-05-01T09:11:40.552Z,31.80
2019-05-01T09:14:10.606Z,28.80
2019-05-01T09:16:40.593Z,24.03
2019-05-01T09:19:10.399Z,24.13
2019-05-01T09:21:40.204Z,26.10
2019-05-01T09:24:10.214Z,22.83
2019-05-01T09:27:00.600Z,20.27
2019-05-01T09:29:37.719Z,23.23
2019-05-01T09:32:10.150Z,29.13
2019-05-01T09:34:39.829Z,20.47
2019-05-01T09:37:09.661Z,19.37
2019-05-01T09:39:39.395Z,20.03
2019-05-01T09:42:09.377Z,21.93
2019-05-01T09:44:39.244Z,19.33
2019-05-01T09:47:09.135Z,17.83
2019-05-01T09:49:38.988Z,21.67
2019-05-01T09:52:39.648Z,25.67
2019-05-01T09:55:28.549Z,24.17
2019-05-01T09:57:58.352Z,21.03
2019-05-01T10:00:30.617Z,20.00
2019-05-01T10:03:00.373Z,20.20
2019-05-01T10:05:30.080Z,20.17
2019-05-01T10:08:03.782Z,22.13
2019-05-01T10:10:50.230Z,19.37
2019-05-01T10:13:22.433Z,22.30
2019-05-01T10:15:51.541Z,17.93
2019-05-01T10:18:22.464Z,21.37
2019-05-01T10:20:52.290Z,19.83
2019-05-01T10:23:22.045Z,17.97
2019-05-01T10:25:54.920Z,20.03
2019-05-01T10:28:40.154Z,20.03
2019-05-01T10:31:23.610Z,20.33
2019-05-01T10:33:55.461Z,25.93
2019-05-01T10:36:41.758Z,18.50
2019-05-01T10:39:11.646Z,17.97
2019-05-01T10:41:46.138Z,19.33
2019-05-01T10:44:12.830Z,17.47
2019-05-01T10:46:42.631Z,17.97
2019-05-01T10:49:12.577Z,17.83
2019-05-01T10:51:42.442Z,16.27
2019-05-01T10:54:12.383Z,17.63
2019-05-01T10:56:42.127Z,17.23
2019-05-01T10:59:11.841Z,15.63
2019-05-01T11:01:54.093Z,17.97
2019-05-01T11:04:23.840Z,17.70
2019-05-01T11:06:53.769Z,14.63
2019-05-01T11:09:23.523Z,15.37
2019-05-01T11:11:53.357Z,18.83
2019-05-01T11:14:23.160Z,13.77
2019-05-01T11:16:53.109Z,15.40
2019-05-01T11:19:22.828Z,12.20
2019-05-01T11:21:52.684Z,12.63
2019-05-01T11:24:22.403Z,14.13
2019-05-01T11:26:52.233Z,10.83
2019-05-01T11:29:21.978Z,14.40
2019-05-01T11:32:00.948Z,14.63
2019-05-01T11:34:52.520Z,10.90
2019-05-01T11:37:41.145Z,12.87
2019-05-01T11:40:22.088Z,12.57
2019-05-01T11:42:51.931Z,10.63
2019-05-01T11:45:21.987Z,13.60
2019-05-01T11:47:51.900Z,13.23
2019-05-01T11:50:21.684Z,11.90
2019-05-01T11:52:51.441Z,10.93
2019-05-01T11:55:21.284Z,11.83
2019-05-01T11:57:51.113Z,8.77
2019-05-01T12:00:21.112Z,11.93
2019-05-01T12:02:50.928Z,8.53
2019-05-01T12:05:20.896Z,9.80
2019-05-01T12:07:51.162Z,7.83
2019-05-01T12:10:20.997Z,8.80
2019-05-01T12:12:50.908Z,12.40
2019-05-01T12:15:20.931Z,7.93
2019-05-01T12:17:51.204Z,8.43
2019-05-01T12:20:22.085Z,8.20
2019-05-01T12:22:51.829Z,9.17
2019-05-01T12:25:21.590Z,7.43
2019-05-01T12:27:51.553Z,7.60
2019-05-01T12:30:21.719Z,9.13
2019-05-01T12:32:51.455Z,7.97
2019-05-01T12:35:21.337Z,8.27
2019-05-01T12:37:52.004Z,11.47
2019-05-01T12:40:22.076Z,9.93
2019-05-01T12:42:52.679Z,10.07
2019-05-01T12:45:23.642Z,7.60
2019-05-01T12:47:56.046Z,8.67
2019-05-01T12:50:25.883Z,6.73
2019-05-01T12:53:26.889Z,7.47
2019-05-01T12:56:15.478Z,7.17
2019-05-01T12:58:50.169Z,6.13
2019-05-01T13:01:20.113Z,5.60
2019-05-01T13:03:49.827Z,7.10
2019-05-01T13:06:19.578Z,7.90
2019-05-01T13:08:49.301Z,6.03
2019-05-01T13:11:19.144Z,7.30
2019-05-01T13:13:50.235Z,6.60
2019-05-01T13:16:20.443Z,7.50
2019-05-01T13:18:50.295Z,6.30
2019-05-01T13:21:20.032Z,7.50
2019-05-01T13:23:49.790Z,6.20
2019-05-01T13:26:34.446Z,6.70
2019-05-01T13:29:16.970Z,7.80
2019-05-01T13:31:57.055Z,8.77
2019-05-01T13:34:26.891Z,6.90
2019-05-01T13:37:03.010Z,10.23
2019-05-01T13:39:28.197Z,4.40
2019-05-01T13:41:58.190Z,6.70
2019-05-01T13:44:28.054Z,6.33
2019-05-01T13:46:57.894Z,6.80
2019-05-01T13:49:27.656Z,5.60
2019-05-01T13:51:57.382Z,5.93
2019-05-01T13:54:27.143Z,6.17
2019-05-01T13:56:56.892Z,8.70
2019-05-01T13:59:26.589Z,4.67
2019-05-01T14:01:56.375Z,6.60
2019-05-01T14:04:27.182Z,12.80
2019-05-01T14:06:57.023Z,7.67
2019-05-01T14:09:33.129Z,9.60
2019-05-01T14:12:03.157Z,8.23
2019-05-01T14:14:36.481Z,8.90
2019-05-01T14:17:06.397Z,6.20
2019-05-01T14:19:37.665Z,6.53
2019-05-01T14:22:25.554Z,7.37
2019-05-01T14:24:57.557Z,6.50
2019-05-01T14:27:30.567Z,6.67
2019-05-01T14:30:00.514Z,6.73
2019-05-01T14:32:30.365Z,6.67
2019-05-01T14:35:00.124Z,6.50
2019-05-01T14:37:35.203Z,8.83
2019-05-01T14:40:03.794Z,7.30
2019-05-01T14:42:33.513Z,10.90
2019-05-01T14:45:03.408Z,9.77
2019-05-01T14:47:33.202Z,8.07
2019-05-01T14:50:03.146Z,7.70
2019-05-01T14:52:32.876Z,10.67
2019-05-01T14:55:02.758Z,9.90
2019-05-01T14:57:32.564Z,8.17
2019-05-01T15:00:02.407Z,5.63
2019-05-01T15:02:32.289Z,9.20
2019-05-01T15:05:02.590Z,5.73
2019-05-01T15:07:42.851Z,6.00
2019-05-01T15:10:04.185Z,5.90
2019-05-01T15:12:33.957Z,7.90
2019-05-01T15:15:21.773Z,9.83
2019-05-01T15:18:01.163Z,10.33
2019-05-01T15:20:31.003Z,10.87
2019-05-01T15:23:00.793Z,8.63
2019-05-01T15:25:30.489Z,6.60
2019-05-01T15:28:00.385Z,9.00
2019-05-01T15:30:30.128Z,10.93
2019-05-01T15:32:59.920Z,9.37
2019-05-01T15:35:29.673Z,7.40
2019-05-01T15:37:59.452Z,6.40
2019-05-01T15:41:03.127Z,8.43
2019-05-01T15:43:34.795Z,6.00
2019-05-01T15:46:04.542Z,8.90
2019-05-01T15:48:34.442Z,7.27
2019-05-01T15:51:04.141Z,6.13
2019-05-01T15:53:33.877Z,6.90
2019-05-01T15:56:03.588Z,3.70
2019-05-01T15:58:33.337Z,4.40
2019-05-01T16:01:03.184Z,6.63
2019-05-01T16:03:32.924Z,6.63
2019-05-01T16:06:02.726Z,4.13
2019-05-01T16:08:32.541Z,7.57
2019-05-01T16:11:18.858Z,6.03
2019-05-01T16:13:49.471Z,7.93
2019-05-01T16:16:19.368Z,6.30
2019-05-01T16:18:49.244Z,4.83
2019-05-01T16:21:19.031Z,9.17
2019-05-01T16:23:48.776Z,8.80
2019-05-01T16:26:18.535Z,7.07
2019-05-01T16:28:48.301Z,7.97
2019-05-01T16:31:18.211Z,4.73
2019-05-01T16:33:48.065Z,7.73
2019-05-01T16:36:20.340Z,9.37
2019-05-01T16:39:14.105Z,6.80
2019-05-01T16:41:43.994Z,4.60
2019-05-01T16:44:13.760Z,5.90
2019-05-01T16:46:47.805Z,6.57
2019-05-01T16:49:17.695Z,5.83
2019-05-01T16:51:47.428Z,10.40
2019-05-01T16:54:17.253Z,7.20
2019-05-01T16:56:47.094Z,7.27
2019-05-01T16:59:16.865Z,6.50
2019-05-01T17:02:08.559Z,7.87
2019-05-01T17:04:59.908Z,10.63
2019-05-01T17:07:44.772Z,9.27
2019-05-01T17:10:29.298Z,6.10
2019-05-01T17:12:59.419Z,8.33
2019-05-01T17:15:33.645Z,5.63
2019-05-01T17:18:03.660Z,7.93
2019-05-01T17:20:34.000Z,7.17
2019-05-01T17:23:22.856Z,9.27
2019-05-01T17:25:52.700Z,11.70
2019-05-01T17:28:22.520Z,10.03
2019-05-01T17:30:57.206Z,7.03
2019-05-01T17:33:27.009Z,8.60
2019-05-01T17:35:56.824Z,8.93
2019-05-01T17:38:26.725Z,7.97
2019-05-01T17:40:56.627Z,6.83
2019-05-01T17:43:26.793Z,7.13
2019-05-01T17:45:56.660Z,11.30
2019-05-01T17:48:28.889Z,8.70
2019-05-01T17:50:59.980Z,10.27
2019-05-01T17:53:29.377Z,7.07
2019-05-01T17:55:59.145Z,6.50
2019-05-01T17:58:28.992Z,5.50
2019-05-01T18:01:27.545Z,10.87
2019-05-01T18:04:16.651Z,7.33
2019-05-01T18:06:50.037Z,8.33
2019-05-01T18:09:19.774Z,9.70
2019-05-01T18:11:52.332Z,12.47
2019-05-01T18:14:20.944Z,6.60
2019-05-01T18:16:50.805Z,11.33
2019-05-01T18:19:20.641Z,8.37
2019-05-01T18:21:58.380Z,7.10
2019-05-01T18:24:53.880Z,7.10
2019-05-01T18:27:41.225Z,7.53
2019-05-01T18:30:15.835Z,8.30
2019-05-01T18:32:47.431Z,6.57
2019-05-01T18:35:16.618Z,10.83
2019-05-01T18:38:00.910Z,9.33
2019-05-01T18:40:37.483Z,9.67
2019-05-01T18:43:07.516Z,6.03
2019-05-01T18:45:51.124Z,8.13
2019-05-01T18:48:21.121Z,6.50
2019-05-01T18:50:54.655Z,4.17
2019-05-01T18:53:24.302Z,7.50
2019-05-01T18:55:53.759Z,9.63
2019-05-01T18:58:23.627Z,4.10
2019-05-01T19:00:53.343Z,5.30
2019-05-01T19:03:23.111Z,5.90
2019-05-01T19:05:53.005Z,5.17
2019-05-01T19:08:23.432Z,4.23
2019-05-01T19:10:53.222Z,3.93
2019-05-01T19:13:23.093Z,3.97
2019-05-01T19:15:52.849Z,4.20
2019-05-01T19:18:22.704Z,4.03
2019-05-01T19:20:59.298Z,5.93
2019-05-01T19:23:27.954Z,3.73
2019-05-01T19:25:56.352Z,4.23
2019-05-01T19:28:27.388Z,6.63
2019-05-01T19:30:57.114Z,6.43
2019-05-01T19:33:26.849Z,7.00
2019-05-01T19:35:56.720Z,5.43
2019-05-01T19:38:29.578Z,2.30
2019-05-01T19:40:58.235Z,5.23
2019-05-01T19:43:27.983Z,5.43
2019-05-01T19:45:57.868Z,3.97
2019-05-01T19:48:27.720Z,3.63
2019-05-01T19:50:57.522Z,5.07
2019-05-01T19:53:29.072Z,3.50
2019-05-01T19:55:59.089Z,6.33
2019-05-01T19:58:28.846Z,4.77
2019-05-01T20:01:04.588Z,4.13
2019-05-01T20:03:37.058Z,3.33
2019-05-01T20:06:08.230Z,4.50
2019-05-01T20:08:39.100Z,4.60
2019-05-01T20:11:09.766Z,4.60
2019-05-01T20:13:40.407Z,3.23
2019-05-01T20:16:10.839Z,4.17
2019-05-01T20:18:41.600Z,2.40
2019-05-01T20:21:11.460Z,3.90
2019-05-01T20:23:41.246Z,4.03
2019-05-01T20:26:11.040Z,3.90
2019-05-01T20:28:40.877Z,5.60
2019-05-01T20:31:10.696Z,5.27
2019-05-01T20:33:44.174Z,2.97
2019-05-01T20:36:12.077Z,4.73
2019-05-01T20:38:41.809Z,3.87
2019-05-01T20:41:16.084Z,3.83
2019-05-01T20:43:43.627Z,3.07
2019-05-01T20:46:14.090Z,3.23
2019-05-01T20:48:43.738Z,3.50
2019-05-01T20:51:13.407Z,4.17
2019-05-01T20:53:43.074Z,3.77
2019-05-01T20:56:27.440Z,4.10
2019-05-01T20:58:57.847Z,5.20
2019-05-01T21:01:29.520Z,2.80
2019-05-01T21:04:19.496Z,3.33
2019-05-01T21:07:08.068Z,3.23
2019-05-01T21:09:47.119Z,4.27
2019-05-01T21:12:10.990Z,4.63
2019-05-01T21:14:40.638Z,2.60
2019-05-01T21:17:13.762Z,2.40
2019-05-01T21:19:41.705Z,3.50
2019-05-01T21:22:11.369Z,3.13
2019-05-01T21:24:41.040Z,4.43
2019-05-01T21:27:10.785Z,3.87
2019-05-01T21:29:40.988Z,3.83
2019-05-01T21:32:10.647Z,4.30
2019-05-01T21:34:40.400Z,3.57
2019-05-01T21:37:10.118Z,4.73
2019-05-01T21:39:39.786Z,3.17
2019-05-01T21:42:11.787Z,2.53
2019-05-01T21:44:40.762Z,4.03
2019-05-01T21:47:10.497Z,2.83
2019-05-01T21:49:40.161Z,3.47
2019-05-01T21:52:09.820Z,2.90
2019-05-01T21:54:39.508Z,3.30
2019-05-01T21:57:11.873Z,4.17
2019-05-01T21:59:44.804Z,4.23
2019-05-01T22:02:12.074Z,2.90
2019-05-01T22:04:41.716Z,2.60
2019-05-01T22:07:11.452Z,3.90
2019-05-01T22:09:41.116Z,4.27
2019-05-01T22:12:13.064Z,3.10
2019-05-01T22:14:47.636Z,3.20
2019-05-01T22:17:27.272Z,3.83
2019-05-01T22:19:55.244Z,3.73
2019-05-01T22:22:44.024Z,3.67
2019-05-01T22:25:28.284Z,2.70
2019-05-01T22:28:07.604Z,3.53
2019-05-01T22:30:51.567Z,3.33
2019-05-01T22:33:21.210Z,3.40
2019-05-01T22:35:52.559Z,2.97
2019-05-01T22:38:22.318Z,2.90
2019-05-01T22:41:07.251Z,2.60
2019-05-01T22:43:37.113Z,3.10
2019-05-01T22:46:08.735Z,3.13
2019-05-01T22:48:38.531Z,2.80
2019-05-01T22:51:17.983Z,2.80
2019-05-01T22:53:50.461Z,3.13
2019-05-01T22:56:20.174Z,3.03
2019-05-01T22:58:49.862Z,3.77
2019-05-01T23:01:20.116Z,3.87
2019-05-01T23:04:01.724Z,3.40
2019-05-01T23:06:31.491Z,3.87
2019-05-01T23:09:01.161Z,2.97
2019-05-01T23:11:33.074Z,3.40
2019-05-01T23:14:02.758Z,3.57
2019-05-01T23:16:37.719Z,2.80
2019-05-01T23:19:07.395Z,3.40
2019-05-01T23:21:37.068Z,2.93
2019-05-01T23:24:07.118Z,3.10
2019-05-01T23:26:37.305Z,3.07
2019-05-01T23:29:07.016Z,3.53
2019-05-01T23:31:36.833Z,2.87
2019-05-01T23:34:06.504Z,3.87
2019-05-01T23:36:36.226Z,3.53
2019-05-01T23:39:06.676Z,3.00
2019-05-01T23:41:45.520Z,2.80
2019-05-01T23:44:07.669Z,2.60
2019-05-01T23:46:37.422Z,3.33
2019-05-01T23:49:07.089Z,3.30
2019-05-01T23:51:36.762Z,3.10
2019-05-01T23:54:06.424Z,2.73
2019-05-01T23:56:36.383Z,4.57
2019-05-01T23:59:06.403Z,3.30
